createdAt,value
2022-12-18T00:01:42.064Z,80.20
2022-12-18T00:04:20.494Z,80.93
2022-12-18T00:06:51.343Z,86.80
2022-12-18T00:09:24.869Z,84.85
2022-12-18T00:14:46.581Z,74.38
2022-12-18T00:17:17.490Z,75.28
2022-12-18T00:19:50.763Z,77.28
2022-12-18T00:22:23.536Z,75.18
2022-12-18T00:24:58.527Z,77.40
2022-12-18T00:27:29.437Z,76.13
2022-12-18T00:30:01.954Z,76.63
2022-12-18T00:32:34.539Z,77.88
2022-12-18T00:35:05.768Z,75.45
2022-12-18T00:37:37.859Z,79.68
2022-12-18T00:40:13.264Z,73.07
2022-12-18T00:42:56.613Z,76.10
2022-12-18T00:45:27.808Z,76.22
2022-12-18T00:47:59.244Z,68.28
2022-12-18T00:50:30.431Z,92.53
2022-12-18T00:59:12.219Z,70.95
2022-12-18T01:01:43.731Z,69.35
2022-12-18T01:04:14.639Z,78.13
2022-12-18T01:06:45.400Z,70.40
2022-12-18T01:09:16.185Z,67.60
2022-12-18T01:11:49.747Z,76.22
2022-12-18T01:14:23.104Z,73.55
2022-12-18T01:16:54.700Z,76.40
2022-12-18T01:19:25.464Z,73.35
2022-12-18T01:21:56.198Z,71.90
2022-12-18T01:24:27.064Z,73.18
2022-12-18T01:26:59.015Z,70.80
2022-12-18T01:29:32.468Z,78.82
2022-12-18T01:32:03.359Z,67.20
2022-12-18T01:34:35.418Z,73.45
2022-12-18T01:37:06.934Z,69.95
2022-12-18T01:39:37.707Z,65.55
2022-12-18T01:42:16.028Z,74.15
2022-12-18T01:45:04.621Z,83.03
2022-12-18T01:47:40.405Z,69.70
2022-12-18T01:50:15.133Z,61.10
2022-12-18T01:52:47.300Z,73.18
2022-12-18T01:55:21.994Z,67.50
2022-12-18T01:57:55.288Z,68.88
2022-12-18T02:00:30.446Z,72.40
2022-12-18T02:03:01.832Z,78.60
2022-12-18T02:05:45.022Z,68.25
2022-12-18T02:08:25.397Z,65.85
2022-12-18T02:11:08.647Z,71.03
2022-12-18T02:13:47.498Z,69.70
2022-12-18T02:16:28.144Z,66.07
2022-12-18T02:19:02.717Z,65.20
2022-12-18T02:21:40.897Z,64.07
2022-12-18T02:24:21.724Z,75.68
2022-12-18T02:27:00.392Z,70.13
2022-12-18T10:02:54.171Z,20.42
2022-12-18T10:05:37.844Z,20.75
2022-12-18T10:08:16.220Z,22.45
2022-12-18T10:10:53.609Z,19.75
2022-12-18T10:13:32.639Z,18.75
2022-12-18T10:16:14.189Z,20.98
2022-12-18T10:19:16.425Z,19.25
2022-12-18T10:21:55.133Z,17.50
2022-12-18T10:24:35.143Z,18.13
2022-12-18T10:27:16.351Z,20.08
2022-12-18T10:29:48.623Z,18.42
2022-12-18T10:32:22.252Z,18.90
2022-12-18T10:35:00.820Z,18.13
2022-12-18T10:37:33.912Z,19.92
2022-12-18T10:40:22.563Z,20.48
2022-12-18T10:43:08.484Z,21.25
2022-12-18T10:45:39.483Z,25.27
2022-12-18T10:48:22.953Z,24.45
2022-12-18T10:51:13.610Z,25.42
2022-12-18T10:53:46.360Z,22.27
2022-12-18T10:56:23.381Z,23.63
2022-12-18T10:59:01.013Z,24.67
2022-12-18T11:01:36.044Z,24.17
2022-12-18T11:04:13.765Z,24.02
2022-12-18T11:07:00.001Z,23.45
2022-12-18T11:09:43.005Z,26.13
2022-12-18T11:12:21.230Z,23.48
2022-12-18T11:14:54.251Z,20.13
2022-12-18T11:17:28.770Z,20.75
2022-12-18T11:20:01.732Z,21.45
2022-12-18T11:22:37.151Z,20.50
2022-12-18T11:28:03.676Z,21.23
2022-12-18T11:30:37.650Z,19.35
2022-12-18T11:33:17.312Z,18.30
2022-12-18T11:35:56.508Z,17.85
2022-12-18T11:38:33.226Z,15.43
2022-12-18T11:41:13.132Z,14.80
2022-12-18T11:43:49.280Z,11.00
2022-12-18T11:46:28.358Z,11.00
2022-12-18T11:49:05.655Z,10.18
2022-12-18T11:51:38.991Z,10.63
2022-12-18T11:54:19.740Z,7.95
2022-12-18T12:00:02.539Z,6.72
2022-12-18T12:02:52.815Z,10.63
2022-12-18T12:05:45.000Z,10.00
2022-12-18T12:08:23.134Z,9.85
2022-12-18T12:11:09.953Z,8.90
2022-12-18T12:13:50.738Z,11.30
2022-12-18T12:16:27.759Z,6.47
2022-12-18T12:19:12.739Z,6.22
2022-12-18T12:21:44.910Z,7.05
2022-12-18T12:24:34.531Z,5.53
2022-12-18T12:27:14.932Z,5.45
2022-12-18T12:29:54.478Z,7.55
2022-12-18T12:32:40.065Z,7.65
2022-12-18T12:35:23.779Z,10.38
2022-12-18T12:38:07.393Z,14.40
2022-12-18T12:40:57.009Z,12.32
2022-12-18T12:43:40.482Z,14.68
2022-12-18T12:46:15.192Z,15.13
2022-12-18T12:48:50.216Z,18.75
2022-12-18T12:51:24.885Z,15.75
2022-12-18T12:53:57.164Z,13.80
2022-12-18T12:56:40.168Z,15.45
2022-12-18T12:59:19.409Z,12.40
2022-12-18T13:02:01.169Z,13.95
2022-12-18T13:04:41.881Z,15.63
2022-12-18T13:07:21.886Z,19.60
2022-12-18T13:10:29.025Z,16.55
2022-12-18T13:12:58.839Z,15.70
2022-12-18T13:15:40.755Z,15.38
2022-12-18T13:18:20.821Z,14.27
2022-12-18T13:20:58.504Z,17.00
2022-12-18T13:23:43.841Z,19.33
2022-12-18T13:26:35.198Z,18.40
2022-12-18T13:29:07.615Z,18.70
2022-12-18T13:32:05.401Z,13.82
2022-12-18T13:34:37.496Z,9.70
2022-12-18T13:37:45.452Z,8.63
2022-12-18T13:40:58.919Z,5.20
2022-12-18T13:43:37.125Z,6.88
2022-12-18T13:46:22.918Z,6.00
2022-12-18T13:49:01.363Z,16.90
2022-12-18T13:51:34.517Z,9.00
2022-12-18T13:54:09.807Z,7.38
2022-12-18T13:56:48.317Z,7.57
2022-12-18T13:59:24.772Z,9.80
2022-12-18T14:02:00.598Z,7.97
2022-12-18T14:04:38.097Z,8.68
2022-12-18T14:07:15.866Z,15.32
2022-12-18T14:10:01.981Z,12.00
2022-12-18T14:12:56.068Z,9.60
2022-12-18T14:15:34.792Z,10.00
2022-12-18T14:18:12.533Z,7.53
2022-12-18T14:20:52.505Z,6.47
2022-12-18T14:23:32.649Z,8.38
2022-12-18T14:26:06.186Z,9.13
2022-12-18T14:28:37.191Z,8.00
2022-12-18T14:31:08.224Z,7.85
2022-12-18T14:33:42.561Z,7.80
2022-12-18T14:36:23.368Z,10.27
2022-12-18T14:38:55.488Z,8.30
2022-12-18T14:41:26.990Z,11.38
2022-12-18T14:43:58.954Z,15.63
2022-12-18T14:46:38.102Z,12.13
2022-12-18T14:49:25.700Z,9.70
2022-12-18T14:52:00.802Z,9.98
2022-12-18T14:54:33.211Z,11.52
2022-12-18T14:57:06.520Z,9.35
2022-12-18T14:59:37.356Z,13.75
2022-12-18T15:02:19.227Z,13.32
2022-12-18T15:04:50.393Z,10.13
2022-12-18T15:07:25.624Z,11.18
2022-12-18T15:10:13.144Z,14.20
2022-12-18T15:12:46.034Z,10.10
2022-12-18T15:15:46.931Z,9.70
2022-12-18T15:18:21.178Z,10.75
2022-12-18T15:20:54.082Z,11.25
2022-12-18T15:23:30.433Z,10.60
2022-12-18T15:26:02.664Z,10.65
2022-12-18T15:28:38.961Z,12.77
2022-12-18T15:31:28.677Z,13.52
2022-12-18T15:34:15.422Z,14.05
2022-12-18T15:36:47.502Z,13.02
2022-12-18T15:39:20.825Z,10.40
2022-12-18T15:42:05.236Z,10.73
2022-12-18T15:44:36.478Z,12.57
2022-12-18T15:53:19.519Z,11.82
2022-12-18T15:56:05.594Z,13.65
2022-12-18T15:58:39.064Z,13.05
2022-12-18T16:01:13.654Z,13.60
2022-12-18T16:03:45.085Z,13.20
2022-12-18T16:06:16.072Z,13.35
2022-12-18T16:08:46.773Z,11.52
2022-12-18T16:11:38.898Z,11.43
2022-12-18T16:14:15.848Z,14.35
2022-12-18T16:16:47.097Z,19.25
2022-12-18T16:19:18.308Z,17.23
2022-12-18T16:21:51.730Z,16.40
2022-12-18T16:24:24.906Z,16.20
2022-12-18T16:27:00.834Z,15.10
2022-12-18T16:29:34.569Z,21.63
2022-12-18T16:34:54.728Z,26.73
2022-12-18T16:37:25.448Z,20.08
2022-12-18T16:39:56.677Z,16.30
2022-12-18T16:42:30.117Z,17.75
2022-12-18T16:45:01.395Z,16.13
2022-12-18T16:47:32.283Z,19.00
2022-12-18T16:50:08.545Z,18.52
2022-12-18T16:52:39.538Z,20.23
2022-12-18T16:55:11.208Z,18.48
2022-12-18T16:57:46.408Z,17.15
2022-12-18T17:00:18.622Z,17.38
2022-12-18T17:02:49.505Z,17.73
2022-12-18T17:05:20.792Z,19.83
2022-12-18T17:07:51.498Z,19.13
2022-12-18T17:10:23.391Z,16.77
2022-12-18T17:13:02.270Z,16.73
2022-12-18T17:15:38.141Z,23.95
2022-12-18T17:18:09.338Z,20.65
2022-12-18T17:20:40.109Z,21.83
2022-12-18T17:23:10.794Z,17.55
2022-12-18T17:25:44.032Z,18.90
2022-12-18T17:28:17.505Z,19.25
2022-12-18T17:30:48.236Z,16.73
2022-12-18T17:33:18.964Z,21.15
2022-12-18T17:35:50.215Z,19.55
2022-12-18T17:38:21.178Z,21.83
2022-12-18T17:40:52.561Z,23.08
2022-12-18T17:43:26.022Z,19.65
2022-12-18T17:45:57.349Z,21.25
2022-12-18T17:48:29.042Z,20.60
2022-12-18T17:51:04.247Z,23.63
2022-12-18T17:53:35.474Z,22.20
2022-12-18T17:56:08.199Z,24.42
2022-12-18T17:58:42.591Z,22.33
2022-12-18T18:01:15.845Z,22.83
2022-12-18T18:06:36.275Z,20.58
2022-12-18T18:09:16.151Z,20.52
2022-12-18T18:12:00.345Z,20.60
2022-12-18T18:14:35.785Z,22.05
2022-12-18T18:17:07.138Z,20.88
2022-12-18T18:19:37.963Z,19.83
2022-12-18T18:22:10.419Z,20.25
2022-12-18T18:24:43.611Z,18.38
2022-12-18T18:27:18.091Z,20.10
2022-12-18T18:29:53.239Z,17.45
2022-12-18T18:32:26.317Z,19.08
2022-12-18T18:34:57.423Z,20.05
2022-12-18T18:37:30.712Z,22.65
2022-12-18T18:40:01.423Z,19.88
2022-12-18T18:42:32.653Z,23.95
2022-12-18T18:45:06.085Z,20.05
2022-12-18T18:50:30.466Z,21.55
2022-12-18T18:53:01.357Z,20.55
2022-12-18T18:55:38.694Z,21.52
2022-12-18T18:58:09.722Z,20.40
2022-12-18T19:00:43.213Z,21.80
2022-12-18T19:03:14.521Z,18.60
2022-12-18T19:05:47.613Z,24.88
2022-12-18T19:08:18.871Z,21.00
2022-12-18T19:10:57.409Z,22.10
2022-12-18T19:13:30.388Z,20.60
2022-12-18T19:16:11.206Z,22.73
2022-12-18T19:18:42.687Z,23.15
2022-12-18T19:21:16.468Z,22.42
2022-12-18T19:29:34.103Z,22.10
2022-12-18T19:32:08.269Z,20.15
2022-12-18T19:34:53.520Z,22.67
2022-12-18T19:37:43.864Z,23.27
2022-12-18T19:40:14.771Z,22.00
2022-12-18T19:42:45.576Z,20.48
2022-12-18T19:45:18.634Z,18.88
2022-12-18T19:47:51.911Z,25.15
2022-12-18T19:50:22.736Z,24.95
2022-12-18T19:52:53.494Z,22.05
2022-12-18T19:55:24.286Z,20.35
2022-12-18T19:57:55.068Z,22.52
2022-12-18T20:00:25.865Z,20.52
2022-12-18T20:03:06.450Z,20.25
2022-12-18T20:05:43.845Z,22.30
2022-12-18T20:08:16.065Z,23.98
2022-12-18T20:10:48.911Z,22.63
2022-12-18T20:13:20.786Z,21.02
2022-12-18T20:15:58.336Z,21.70
2022-12-18T20:18:34.715Z,22.67
2022-12-18T20:21:09.491Z,20.17
2022-12-18T20:23:47.179Z,21.17
2022-12-18T20:26:21.815Z,23.77
2022-12-18T20:28:52.569Z,21.35
2022-12-18T20:31:23.745Z,21.35
2022-12-18T20:34:01.761Z,24.05
2022-12-18T20:36:35.174Z,21.40
2022-12-18T20:39:12.256Z,23.35
2022-12-18T20:41:47.057Z,24.48
2022-12-18T20:44:22.512Z,25.07
2022-12-18T20:47:00.265Z,22.35
2022-12-18T20:49:37.571Z,22.73
2022-12-18T20:52:11.434Z,24.15
2022-12-18T20:54:42.192Z,21.20
2022-12-18T20:57:12.940Z,21.80
2022-12-18T20:59:48.068Z,19.73
2022-12-18T21:02:19.968Z,21.60
2022-12-18T21:04:54.280Z,19.95
2022-12-18T21:07:27.395Z,20.63
2022-12-18T21:09:58.118Z,23.25
2022-12-18T21:12:43.943Z,22.48
2022-12-18T21:15:22.840Z,20.63
2022-12-18T21:17:56.214Z,18.70
2022-12-18T21:20:29.731Z,19.60
2022-12-18T21:23:12.077Z,22.15
2022-12-18T21:25:47.579Z,19.80
2022-12-18T21:28:25.168Z,17.67
2022-12-18T21:30:56.001Z,21.00
2022-12-18T21:33:26.821Z,25.50
2022-12-18T21:36:00.150Z,22.38
2022-12-18T21:38:33.320Z,22.98
2022-12-18T21:41:07.927Z,20.10
2022-12-18T21:43:52.867Z,24.35
2022-12-18T21:46:24.919Z,24.13
2022-12-18T21:48:55.720Z,24.13
2022-12-18T21:51:29.023Z,21.60
2022-12-18T21:54:01.175Z,21.85
2022-12-18T21:56:46.644Z,22.85
2022-12-18T21:59:20.583Z,19.55
2022-12-18T22:01:54.172Z,19.90
2022-12-18T22:04:28.954Z,18.98
2022-12-18T22:07:03.133Z,21.55
2022-12-18T22:09:35.700Z,21.27
2022-12-18T22:12:07.156Z,21.58
2022-12-18T22:14:38.270Z,21.63
2022-12-18T22:17:11.069Z,20.90
2022-12-18T22:19:43.192Z,21.20
2022-12-18T22:22:17.147Z,24.20
2022-12-18T22:24:47.862Z,21.00
2022-12-18T22:27:18.604Z,22.92
2022-12-18T22:30:01.953Z,21.35
2022-12-18T22:32:33.579Z,20.85
2022-12-18T22:35:16.184Z,21.92
2022-12-18T22:37:49.613Z,21.02
2022-12-18T22:40:25.769Z,23.70
2022-12-18T22:42:57.470Z,20.45
2022-12-18T22:45:28.748Z,23.58
2022-12-18T22:48:01.010Z,25.25
2022-12-18T22:50:33.770Z,22.30
2022-12-18T22:53:08.348Z,24.77
2022-12-18T22:55:39.834Z,22.77
2022-12-18T22:58:15.219Z,22.15
2022-12-18T23:00:46.510Z,22.85
2022-12-18T23:03:18.302Z,20.80
2022-12-18T23:06:05.783Z,23.13
2022-12-18T23:08:39.921Z,20.60
2022-12-18T23:11:11.170Z,22.85
2022-12-18T23:13:42.484Z,23.38
2022-12-18T23:16:16.655Z,23.80
2022-12-18T23:21:57.777Z,24.40
2022-12-18T23:24:32.720Z,24.85
2022-12-18T23:27:03.800Z,24.83
2022-12-18T23:29:39.264Z,26.17
2022-12-18T23:32:10.539Z,24.13
2022-12-18T23:34:42.162Z,23.02
2022-12-18T23:37:12.952Z,21.88
2022-12-18T23:39:46.441Z,21.13
2022-12-18T23:42:19.004Z,21.48
2022-12-18T23:44:51.486Z,23.27
2022-12-18T23:47:22.255Z,24.42
2022-12-18T23:49:54.283Z,23.75
2022-12-18T23:52:25.480Z,24.90
2022-12-18T23:54:58.804Z,24.27
2022-12-18T23:57:29.827Z,24.83
